sensor_id;sensor_type;location;lat;lon;timestamp;pressure;altitude;pressure_sealevel;temperature;humidity
11643;BME280;5877;50.930;6.918;2023-12-29T00:03:54;100552.69;;;12.38;60.84
11643;BME280;5877;50.930;6.918;2023-12-29T00:08:47;100513.31;;;12.43;60.63
11643;BME280;5877;50.930;6.918;2023-12-29T00:13:41;100539.75;;;12.37;60.96
11643;BME280;5877;50.930;6.918;2023-12-29T00:18:37;100462.03;;;12.34;59.98
11643;BME280;5877;50.930;6.918;2023-12-29T00:23:29;100460.13;;;11.99;60.36
11643;BME280;5877;50.930;6.918;2023-12-29T00:28:22;100276.25;;;11.03;60.47
11643;BME280;5877;50.930;6.918;2023-12-29T00:33:14;100515.31;;;12.71;59.84
11643;BME280;5877;50.930;6.918;2023-12-29T00:38:07;100512.31;;;12.56;59.92
11643;BME280;5877;50.930;6.918;2023-12-29T00:43:01;100456.66;;;12.29;60.00
11643;BME280;5877;50.930;6.918;2023-12-29T00:47:54;100387.25;;;11.88;59.76
11643;BME280;5877;50.930;6.918;2023-12-29T00:52:47;100419.06;;;11.98;60.03
11643;BME280;5877;50.930;6.918;2023-12-29T00:57:40;100403.75;;;11.95;59.67
11643;BME280;5877;50.930;6.918;2023-12-29T01:02:33;100464.94;;;12.56;59.60
11643;BME280;5877;50.930;6.918;2023-12-29T01:07:26;100391.50;;;11.89;59.64
11643;BME280;5877;50.930;6.918;2023-12-29T01:12:19;100485.19;;;12.67;59.67
11643;BME280;5877;50.930;6.918;2023-12-29T01:17:11;100451.97;;;12.43;59.75
11643;BME280;5877;50.930;6.918;2023-12-29T01:22:03;100446.50;;;12.44;59.82
11643;BME280;5877;50.930;6.918;2023-12-29T01:26:56;100456.22;;;12.44;60.74
11643;BME280;5877;50.930;6.918;2023-12-29T01:31:50;100354.84;;;11.76;60.59
11643;BME280;5877;50.930;6.918;2023-12-29T01:36:44;100456.47;;;12.54;59.95
11643;BME280;5877;50.930;6.918;2023-12-29T01:41:37;100421.16;;;12.08;61.06
11643;BME280;5877;50.930;6.918;2023-12-29T01:46:34;100459.09;;;12.54;60.66
11643;BME280;5877;50.930;6.918;2023-12-29T01:51:28;100454.28;;;12.74;60.44
11643;BME280;5877;50.930;6.918;2023-12-29T01:56:22;100453.94;;;12.59;60.49
11643;BME280;5877;50.930;6.918;2023-12-29T02:01:17;100470.56;;;12.83;60.39
11643;BME280;5877;50.930;6.918;2023-12-29T02:06:12;100379.41;;;12.23;60.29
11643;BME280;5877;50.930;6.918;2023-12-29T02:11:05;100373.00;;;12.08;60.93
11643;BME280;5877;50.930;6.918;2023-12-29T02:16:06;100395.00;;;12.48;60.54
11643;BME280;5877;50.930;6.918;2023-12-29T02:21:02;100418.78;;;12.77;60.41
11643;BME280;5877;50.930;6.918;2023-12-29T02:26:02;100440.53;;;12.84;60.67
11643;BME280;5877;50.930;6.918;2023-12-29T02:31:04;100437.09;;;12.95;60.07
11643;BME280;5877;50.930;6.918;2023-12-29T02:36:02;100295.00;;;12.25;59.28
11643;BME280;5877;50.930;6.918;2023-12-29T02:40:57;100295.78;;;12.14;59.55
11643;BME280;5877;50.930;6.918;2023-12-29T02:45:50;100421.56;;;13.10;59.18
11643;BME280;5877;50.930;6.918;2023-12-29T02:50:43;100350.78;;;12.74;58.70
11643;BME280;5877;50.930;6.918;2023-12-29T02:55:39;100387.69;;;13.02;59.41
11643;BME280;5877;50.930;6.918;2023-12-29T03:00:31;100395.19;;;12.82;59.60
11643;BME280;5877;50.930;6.918;2023-12-29T03:05:24;100385.84;;;13.02;58.88
11643;BME280;5877;50.930;6.918;2023-12-29T03:10:17;100193.88;;;11.62;59.41
11643;BME280;5877;50.930;6.918;2023-12-29T03:15:10;100381.69;;;12.78;59.81
11643;BME280;5877;50.930;6.918;2023-12-29T03:20:03;100329.47;;;12.75;59.77
11643;BME280;5877;50.930;6.918;2023-12-29T03:24:59;100368.31;;;12.45;60.95
11643;BME280;5877;50.930;6.918;2023-12-29T03:29:51;100404.81;;;12.76;60.96
11643;BME280;5877;50.930;6.918;2023-12-29T03:34:45;100404.03;;;12.76;61.24
11643;BME280;5877;50.930;6.918;2023-12-29T03:39:39;100368.31;;;12.56;62.05
11643;BME280;5877;50.930;6.918;2023-12-29T03:44:32;100384.31;;;12.78;61.21
11643;BME280;5877;50.930;6.918;2023-12-29T03:49:25;100382.72;;;12.77;61.64
11643;BME280;5877;50.930;6.918;2023-12-29T03:54:18;100366.59;;;12.74;61.53
11643;BME280;5877;50.930;6.918;2023-12-29T03:59:11;100338.75;;;12.78;61.15
11643;BME280;5877;50.930;6.918;2023-12-29T04:04:05;100352.53;;;12.56;61.26
11643;BME280;5877;50.930;6.918;2023-12-29T04:08:59;100343.81;;;12.56;61.20
11643;BME280;5877;50.930;6.918;2023-12-29T04:13:53;100359.16;;;12.71;61.75
11643;BME280;5877;50.930;6.918;2023-12-29T04:18:46;100222.03;;;12.09;61.16
11643;BME280;5877;50.930;6.918;2023-12-29T04:23:39;100371.75;;;13.09;60.96
11643;BME280;5877;50.930;6.918;2023-12-29T04:28:33;100299.09;;;12.44;61.86
11643;BME280;5877;50.930;6.918;2023-12-29T04:33:26;100351.84;;;13.01;60.90
11643;BME280;5877;50.930;6.918;2023-12-29T04:38:20;100345.72;;;13.12;60.49
11643;BME280;5877;50.930;6.918;2023-12-29T04:43:13;100257.31;;;12.48;60.51
11643;BME280;5877;50.930;6.918;2023-12-29T04:48:07;100274.50;;;12.39;61.30
11643;BME280;5877;50.930;6.918;2023-12-29T04:53:01;100255.53;;;12.13;61.38
11643;BME280;5877;50.930;6.918;2023-12-29T04:57:53;100383.28;;;12.91;61.64
11643;BME280;5877;50.930;6.918;2023-12-29T05:02:46;100405.53;;;13.12;61.68
11643;BME280;5877;50.930;6.918;2023-12-29T05:07:40;100267.31;;;12.22;61.95
11643;BME280;5877;50.930;6.918;2023-12-29T05:12:32;100357.91;;;12.61;62.24
11643;BME280;5877;50.930;6.918;2023-12-29T05:17:24;100335.72;;;12.34;63.03
11643;BME280;5877;50.930;6.918;2023-12-29T05:22:17;100275.53;;;11.91;62.86
11643;BME280;5877;50.930;6.918;2023-12-29T05:27:11;100303.69;;;11.90;62.74
11643;BME280;5877;50.930;6.918;2023-12-29T05:32:04;100174.97;;;11.07;63.25
11643;BME280;5877;50.930;6.918;2023-12-29T05:36:57;100355.38;;;12.20;62.92
11643;BME280;5877;50.930;6.918;2023-12-29T05:41:50;100392.47;;;12.53;63.50
11643;BME280;5877;50.930;6.918;2023-12-29T05:46:48;100252.63;;;11.68;62.84
11643;BME280;5877;50.930;6.918;2023-12-29T05:51:43;100404.03;;;12.29;63.71
11643;BME280;5877;50.930;6.918;2023-12-29T05:56:35;100368.28;;;11.98;63.88
11643;BME280;5877;50.930;6.918;2023-12-29T06:01:28;100394.19;;;12.36;63.63
11643;BME280;5877;50.930;6.918;2023-12-29T06:06:21;100336.38;;;11.94;63.70
11643;BME280;5877;50.930;6.918;2023-12-29T06:11:16;100385.84;;;12.39;63.60
11643;BME280;5877;50.930;6.918;2023-12-29T06:16:09;100398.63;;;12.24;63.22
11643;BME280;5877;50.930;6.918;2023-12-29T06:21:05;100370.72;;;12.11;63.32
11643;BME280;5877;50.930;6.918;2023-12-29T06:25:58;100272.59;;;11.46;63.18
11643;BME280;5877;50.930;6.918;2023-12-29T06:30:53;100357.34;;;12.13;62.68
11643;BME280;5877;50.930;6.918;2023-12-29T06:35:45;100300.03;;;11.91;62.11
11643;BME280;5877;50.930;6.918;2023-12-29T06:40:40;100381.81;;;12.25;62.46
11643;BME280;5877;50.930;6.918;2023-12-29T06:45:33;100352.84;;;12.01;62.60
11643;BME280;5877;50.930;6.918;2023-12-29T06:50:25;100402.44;;;12.40;62.33
11643;BME280;5877;50.930;6.918;2023-12-29T06:55:17;100330.22;;;12.12;61.70
11643;BME280;5877;50.930;6.918;2023-12-29T07:00:10;100293.16;;;11.90;61.38
11643;BME280;5877;50.930;6.918;2023-12-29T07:05:03;100381.00;;;12.83;60.97
11643;BME280;5877;50.930;6.918;2023-12-29T07:09:57;100377.78;;;12.81;60.90
11643;BME280;5877;50.930;6.918;2023-12-29T07:14:50;100348.28;;;12.67;60.92
11643;BME280;5877;50.930;6.918;2023-12-29T07:19:44;100369.44;;;12.72;61.06
11643;BME280;5877;50.930;6.918;2023-12-29T07:24:36;100364.53;;;12.64;61.32
11643;BME280;5877;50.930;6.918;2023-12-29T07:29:29;100303.91;;;12.00;62.32
11643;BME280;5877;50.930;6.918;2023-12-29T07:34:21;100372.72;;;12.91;61.04
11643;BME280;5877;50.930;6.918;2023-12-29T07:39:21;100296.22;;;12.46;61.61
11643;BME280;5877;50.930;6.918;2023-12-29T07:44:15;100366.91;;;12.89;61.23
11643;BME280;5877;50.930;6.918;2023-12-29T07:49:11;100370.84;;;13.03;61.11
11643;BME280;5877;50.930;6.918;2023-12-29T07:54:03;100346.41;;;12.91;61.74
11643;BME280;5877;50.930;6.918;2023-12-29T07:58:58;100339.44;;;12.73;63.23
11643;BME280;5877;50.930;6.918;2023-12-29T08:03:51;100177.88;;;11.64;64.21
11643;BME280;5877;50.930;6.918;2023-12-29T08:08:44;100350.66;;;12.80;65.93
11643;BME280;5877;50.930;6.918;2023-12-29T08:13:37;100158.44;;;11.42;66.92
11643;BME280;5877;50.930;6.918;2023-12-29T08:18:30;100349.56;;;12.53;68.67
11643;BME280;5877;50.930;6.918;2023-12-29T08:23:27;100402.31;;;12.81;69.99
11643;BME280;5877;50.930;6.918;2023-12-29T08:28:19;100358.72;;;12.15;72.29
11643;BME280;5877;50.930;6.918;2023-12-29T08:33:13;100376.31;;;12.15;74.49
11643;BME280;5877;50.930;6.918;2023-12-29T08:38:05;100403.69;;;12.37;74.87
11643;BME280;5877;50.930;6.918;2023-12-29T08:42:57;100346.13;;;12.29;74.13
11643;BME280;5877;50.930;6.918;2023-12-29T08:47:49;100311.44;;;11.85;74.91
11643;BME280;5877;50.930;6.918;2023-12-29T08:52:42;100419.13;;;12.33;76.64
11643;BME280;5877;50.930;6.918;2023-12-29T08:57:34;100365.13;;;12.43;75.31
11643;BME280;5877;50.930;6.918;2023-12-29T09:02:28;100354.22;;;12.62;74.58
11643;BME280;5877;50.930;6.918;2023-12-29T09:07:20;100413.72;;;12.98;74.24
11643;BME280;5877;50.930;6.918;2023-12-29T09:12:13;100240.31;;;11.92;74.40
11643;BME280;5877;50.930;6.918;2023-12-29T09:17:06;100411.09;;;12.87;74.64
11643;BME280;5877;50.930;6.918;2023-12-29T09:21:58;100382.41;;;12.50;75.68
11643;BME280;5877;50.930;6.918;2023-12-29T09:26:50;100419.22;;;12.97;75.20
11643;BME280;5877;50.930;6.918;2023-12-29T09:31:44;100414.75;;;12.97;74.86
11643;BME280;5877;50.930;6.918;2023-12-29T09:36:37;100416.16;;;12.65;75.93
11643;BME280;5877;50.930;6.918;2023-12-29T09:41:31;100270.63;;;11.94;74.51
11643;BME280;5877;50.930;6.918;2023-12-29T09:46:27;100379.41;;;12.70;74.79
11643;BME280;5877;50.930;6.918;2023-12-29T09:51:20;100423.41;;;13.10;74.30
11643;BME280;5877;50.930;6.918;2023-12-29T09:56:19;100397.91;;;12.98;73.89
11643;BME280;5877;50.930;6.918;2023-12-29T10:01:13;100203.06;;;11.95;72.46
11643;BME280;5877;50.930;6.918;2023-12-29T10:06:07;100424.56;;;13.25;71.70
11643;BME280;5877;50.930;6.918;2023-12-29T10:11:06;100378.38;;;12.83;71.78
11643;BME280;5877;50.930;6.918;2023-12-29T10:21:32;100410.53;;;13.65;69.99
11643;BME280;5877;50.930;6.918;2023-12-29T10:26:30;100412.00;;;13.44;69.94
11643;BME280;5877;50.930;6.918;2023-12-29T10:31:23;100377.09;;;13.54;68.02
11643;BME280;5877;50.930;6.918;2023-12-29T10:36:16;100410.75;;;14.09;66.89
11643;BME280;5877;50.930;6.918;2023-12-29T10:41:14;100413.75;;;13.67;67.24
11643;BME280;5877;50.930;6.918;2023-12-29T10:46:09;100061.91;;;11.49;67.17
11643;BME280;5877;50.930;6.918;2023-12-29T10:51:07;100385.09;;;13.59;66.98
11643;BME280;5877;50.930;6.918;2023-12-29T10:56:01;100271.06;;;12.78;67.76
11643;BME280;5877;50.930;6.918;2023-12-29T11:00:58;100330.19;;;13.39;66.81
11643;BME280;5877;50.930;6.918;2023-12-29T11:05:59;100240.53;;;13.22;65.10
11643;BME280;5877;50.930;6.918;2023-12-29T11:10:55;100366.84;;;14.03;65.58
11643;BME280;5877;50.930;6.918;2023-12-29T11:15:51;100377.66;;;14.18;65.21
11643;BME280;5877;50.930;6.918;2023-12-29T11:20:45;100398.28;;;14.54;63.80
11643;BME280;5877;50.930;6.918;2023-12-29T11:25:40;100376.84;;;14.51;63.30
11643;BME280;5877;50.930;6.918;2023-12-29T11:30:33;100370.38;;;14.80;62.55
11643;BME280;5877;50.930;6.918;2023-12-29T11:35:45;100311.75;;;14.61;61.97
11643;BME280;5877;50.930;6.918;2023-12-29T11:45:49;100379.34;;;15.50;60.96
11643;BME280;5877;50.930;6.918;2023-12-29T11:50:44;100339.47;;;15.30;60.16
11643;BME280;5877;50.930;6.918;2023-12-29T11:55:39;100369.06;;;15.80;59.48
11643;BME280;5877;50.930;6.918;2023-12-29T12:00:45;100353.28;;;15.64;59.38
11643;BME280;5877;50.930;6.918;2023-12-29T12:05:48;100364.81;;;15.25;60.33
11643;BME280;5877;50.930;6.918;2023-12-29T12:10:42;100301.69;;;15.07;59.43
11643;BME280;5877;50.930;6.918;2023-12-29T12:15:40;100304.06;;;14.82;60.22
11643;BME280;5877;50.930;6.918;2023-12-29T12:20:34;100324.38;;;15.25;59.74
11643;BME280;5877;50.930;6.918;2023-12-29T12:25:27;100344.56;;;14.87;60.44
11643;BME280;5877;50.930;6.918;2023-12-29T12:30:21;100346.31;;;15.25;60.10
11643;BME280;5877;50.930;6.918;2023-12-29T12:35:19;100311.19;;;14.59;60.83
11643;BME280;5877;50.930;6.918;2023-12-29T12:40:25;100364.47;;;14.95;61.23
11643;BME280;5877;50.930;6.918;2023-12-29T12:45:20;100348.91;;;14.77;61.19
11643;BME280;5877;50.930;6.918;2023-12-29T12:50:15;100344.50;;;14.82;60.98
11643;BME280;5877;50.930;6.918;2023-12-29T12:55:10;100351.31;;;14.56;61.64
11643;BME280;5877;50.930;6.918;2023-12-29T13:00:04;100005.50;;;12.70;61.13
11643;BME280;5877;50.930;6.918;2023-12-29T13:05:00;100322.31;;;14.83;60.69
11643;BME280;5877;50.930;6.918;2023-12-29T13:09:57;100192.47;;;13.87;60.93
11643;BME280;5877;50.930;6.918;2023-12-29T13:14:51;100315.59;;;14.98;60.29
11643;BME280;5877;50.930;6.918;2023-12-29T13:19:44;100298.34;;;14.68;60.86
11643;BME280;5877;50.930;6.918;2023-12-29T13:24:44;100311.25;;;14.43;61.28
11643;BME280;5877;50.930;6.918;2023-12-29T13:29:39;100316.22;;;14.83;60.58
11643;BME280;5877;50.930;6.918;2023-12-29T13:34:39;100329.31;;;14.94;60.63
11643;BME280;5877;50.930;6.918;2023-12-29T13:39:44;100250.88;;;14.13;60.97
11643;BME280;5877;50.930;6.918;2023-12-29T13:44:40;100218.09;;;14.09;61.31
11643;BME280;5877;50.930;6.918;2023-12-29T13:49:37;100155.69;;;13.59;61.06
11643;BME280;5877;50.930;6.918;2023-12-29T13:54:29;100298.03;;;14.43;61.67
11643;BME280;5877;50.930;6.918;2023-12-29T13:59:29;100299.31;;;14.23;63.69
11643;BME280;5877;50.930;6.918;2023-12-29T14:04:22;100333.25;;;14.15;66.34
11643;BME280;5877;50.930;6.918;2023-12-29T14:09:28;100325.50;;;14.08;69.37
11643;BME280;5877;50.930;6.918;2023-12-29T14:14:35;100318.25;;;13.82;71.56
11643;BME280;5877;50.930;6.918;2023-12-29T14:19:44;100338.13;;;14.23;72.00
11643;BME280;5877;50.930;6.918;2023-12-29T14:24:38;100229.75;;;13.24;75.05
11643;BME280;5877;50.930;6.918;2023-12-29T14:29:40;100302.41;;;13.82;73.80
11643;BME280;5877;50.930;6.918;2023-12-29T14:34:49;99848.50;;;10.66;73.58
11643;BME280;5877;50.930;6.918;2023-12-29T14:39:52;100273.94;;;13.33;74.45
11643;BME280;5877;50.930;6.918;2023-12-29T14:44:57;100106.56;;;12.52;72.85
11643;BME280;5877;50.930;6.918;2023-12-29T14:49:53;100206.75;;;13.53;71.96
11643;BME280;5877;50.930;6.918;2023-12-29T14:54:47;100238.16;;;13.54;71.83
11643;BME280;5877;50.930;6.918;2023-12-29T14:59:40;100295.22;;;13.77;70.88
11643;BME280;5877;50.930;6.918;2023-12-29T15:04:35;100279.16;;;13.79;71.19
11643;BME280;5877;50.930;6.918;2023-12-29T15:09:29;100311.25;;;14.09;70.26
11643;BME280;5877;50.930;6.918;2023-12-29T15:14:22;100320.38;;;14.02;69.66
11643;BME280;5877;50.930;6.918;2023-12-29T15:19:16;100272.28;;;13.61;68.74
11643;BME280;5877;50.930;6.918;2023-12-29T15:24:10;100249.25;;;13.40;67.65
11643;BME280;5877;50.930;6.918;2023-12-29T15:29:06;100207.78;;;13.52;65.99
11643;BME280;5877;50.930;6.918;2023-12-29T15:33:59;100303.94;;;13.78;67.98
11643;BME280;5877;50.930;6.918;2023-12-29T15:38:54;100288.97;;;13.83;68.85
11643;BME280;5877;50.930;6.918;2023-12-29T15:43:46;100267.88;;;13.67;68.27
11643;BME280;5877;50.930;6.918;2023-12-29T15:48:41;100075.13;;;12.17;69.44
11643;BME280;5877;50.930;6.918;2023-12-29T15:53:48;100263.31;;;13.45;70.37
11643;BME280;5877;50.930;6.918;2023-12-29T15:58:42;100292.03;;;13.75;70.85
11643;BME280;5877;50.930;6.918;2023-12-29T16:03:37;100183.69;;;12.81;72.35
11643;BME280;5877;50.930;6.918;2023-12-29T16:08:37;100258.66;;;13.19;73.45
11643;BME280;5877;50.930;6.918;2023-12-29T16:13:31;100208.28;;;13.32;71.29
11643;BME280;5877;50.930;6.918;2023-12-29T16:18:27;100158.00;;;13.05;71.52
11643;BME280;5877;50.930;6.918;2023-12-29T16:23:22;100247.91;;;13.37;71.53
11643;BME280;5877;50.930;6.918;2023-12-29T16:28:15;100243.81;;;13.46;71.07
11643;BME280;5877;50.930;6.918;2023-12-29T16:33:08;100165.19;;;12.93;69.44
11643;BME280;5877;50.930;6.918;2023-12-29T16:38:05;100209.00;;;13.44;69.86
11643;BME280;5877;50.930;6.918;2023-12-29T16:42:58;100245.97;;;13.49;69.69
11643;BME280;5877;50.930;6.918;2023-12-29T16:47:53;100135.00;;;12.84;69.00
11643;BME280;5877;50.930;6.918;2023-12-29T16:52:48;100194.41;;;13.08;69.28
11643;BME280;5877;50.930;6.918;2023-12-29T16:57:43;100229.28;;;13.27;68.85
11643;BME280;5877;50.930;6.918;2023-12-29T17:02:35;100237.19;;;13.44;68.47
11643;BME280;5877;50.930;6.918;2023-12-29T17:07:29;100263.00;;;13.75;68.11
11643;BME280;5877;50.930;6.918;2023-12-29T17:12:22;100079.94;;;12.65;69.17
11643;BME280;5877;50.930;6.918;2023-12-29T17:17:18;100260.38;;;13.75;71.15
11643;BME280;5877;50.930;6.918;2023-12-29T17:22:10;100216.38;;;12.97;72.03
11643;BME280;5877;50.930;6.918;2023-12-29T17:27:04;100163.59;;;12.92;71.44
11643;BME280;5877;50.930;6.918;2023-12-29T17:31:57;100251.34;;;13.38;71.45
11643;BME280;5877;50.930;6.918;2023-12-29T17:36:50;100230.00;;;13.22;71.48
11643;BME280;5877;50.930;6.918;2023-12-29T17:41:43;100207.19;;;12.99;71.15
11643;BME280;5877;50.930;6.918;2023-12-29T17:46:36;99717.66;;;9.71;71.24
11643;BME280;5877;50.930;6.918;2023-12-29T17:51:28;100136.16;;;12.31;71.11
11643;BME280;5877;50.930;6.918;2023-12-29T17:56:20;100235.34;;;13.61;68.21
11643;BME280;5877;50.930;6.918;2023-12-29T18:01:18;100170.59;;;12.70;67.19
11643;BME280;5877;50.930;6.918;2023-12-29T18:06:13;100166.03;;;12.65;66.57
11643;BME280;5877;50.930;6.918;2023-12-29T18:11:06;100183.94;;;12.51;66.78
11643;BME280;5877;50.930;6.918;2023-12-29T18:16:00;100238.56;;;12.73;66.23
11643;BME280;5877;50.930;6.918;2023-12-29T18:20:55;100269.72;;;12.76;66.63
11643;BME280;5877;50.930;6.918;2023-12-29T18:25:48;100152.75;;;11.80;67.23
11643;BME280;5877;50.930;6.918;2023-12-29T18:30:41;100181.66;;;12.03;66.29
11643;BME280;5877;50.930;6.918;2023-12-29T18:35:34;100256.75;;;12.34;66.90
11643;BME280;5877;50.930;6.918;2023-12-29T18:40:35;100243.03;;;12.32;67.20
11643;BME280;5877;50.930;6.918;2023-12-29T18:45:27;100271.44;;;12.70;65.81
11643;BME280;5877;50.930;6.918;2023-12-29T18:50:28;100282.69;;;13.22;64.42
11643;BME280;5877;50.930;6.918;2023-12-29T18:55:21;100279.75;;;13.19;64.54
11643;BME280;5877;50.930;6.918;2023-12-29T19:00:14;100213.97;;;13.12;63.53
11643;BME280;5877;50.930;6.918;2023-12-29T19:05:08;100314.34;;;13.39;63.71
11643;BME280;5877;50.930;6.918;2023-12-29T19:10:02;100313.81;;;13.54;63.69
11643;BME280;5877;50.930;6.918;2023-12-29T19:14:55;100212.69;;;12.98;63.62
11643;BME280;5877;50.930;6.918;2023-12-29T19:19:50;100273.63;;;13.47;63.31
11643;BME280;5877;50.930;6.918;2023-12-29T19:24:46;100320.53;;;13.61;65.15
11643;BME280;5877;50.930;6.918;2023-12-29T19:29:43;100180.66;;;12.73;65.24
11643;BME280;5877;50.930;6.918;2023-12-29T19:34:37;100279.50;;;13.20;65.03
11643;BME280;5877;50.930;6.918;2023-12-29T19:39:30;100190.81;;;12.52;65.10
11643;BME280;5877;50.930;6.918;2023-12-29T19:44:23;100334.84;;;13.20;66.41
11643;BME280;5877;50.930;6.918;2023-12-29T19:49:15;100250.66;;;12.57;67.10
11643;BME280;5877;50.930;6.918;2023-12-29T19:54:08;100340.59;;;13.17;66.99
11643;BME280;5877;50.930;6.918;2023-12-29T19:59:05;100335.63;;;13.49;66.18
11643;BME280;5877;50.930;6.918;2023-12-29T20:03:58;100247.56;;;12.48;65.55
11643;BME280;5877;50.930;6.918;2023-12-29T20:08:54;100287.75;;;12.44;66.15
11643;BME280;5877;50.930;6.918;2023-12-29T20:13:49;100370.00;;;13.26;64.38
11643;BME280;5877;50.930;6.918;2023-12-29T20:18:44;100216.38;;;12.28;64.45
11643;BME280;5877;50.930;6.918;2023-12-29T20:23:38;100377.69;;;12.64;67.17
11643;BME280;5877;50.930;6.918;2023-12-29T20:28:31;100258.72;;;11.80;67.51
11643;BME280;5877;50.930;6.918;2023-12-29T20:33:29;100151.56;;;11.05;68.30
11643;BME280;5877;50.930;6.918;2023-12-29T20:38:21;100279.91;;;11.97;68.10
11643;BME280;5877;50.930;6.918;2023-12-29T20:43:15;100369.22;;;12.74;66.92
11643;BME280;5877;50.930;6.918;2023-12-29T20:48:07;100348.63;;;12.59;64.06
11643;BME280;5877;50.930;6.918;2023-12-29T20:53:01;100195.31;;;11.23;64.31
11643;BME280;5877;50.930;6.918;2023-12-29T20:57:55;100288.25;;;11.41;63.21
11643;BME280;5877;50.930;6.918;2023-12-29T21:02:49;100350.69;;;12.10;63.16
11643;BME280;5877;50.930;6.918;2023-12-29T21:07:42;100332.53;;;11.67;63.96
11643;BME280;5877;50.930;6.918;2023-12-29T21:12:35;100365.81;;;11.73;64.90
11643;BME280;5877;50.930;6.918;2023-12-29T21:17:27;100288.50;;;10.91;66.10
11643;BME280;5877;50.930;6.918;2023-12-29T21:22:24;100364.50;;;11.52;66.55
11643;BME280;5877;50.930;6.918;2023-12-29T21:27:17;100186.63;;;10.39;66.86
11643;BME280;5877;50.930;6.918;2023-12-29T21:32:12;100326.53;;;11.18;68.16
11643;BME280;5877;50.930;6.918;2023-12-29T21:37:16;100370.47;;;11.11;69.57
11643;BME280;5877;50.930;6.918;2023-12-29T21:42:10;100366.25;;;11.10;69.97
11643;BME280;5877;50.930;6.918;2023-12-29T21:47:19;100387.03;;;11.30;70.70
11643;BME280;5877;50.930;6.918;2023-12-29T21:52:17;100411.28;;;11.62;70.17
11643;BME280;5877;50.930;6.918;2023-12-29T21:57:11;100426.88;;;11.75;69.36
11643;BME280;5877;50.930;6.918;2023-12-29T22:02:08;100408.00;;;11.48;69.53
11643;BME280;5877;50.930;6.918;2023-12-29T22:07:01;100329.00;;;10.65;70.99
11643;BME280;5877;50.930;6.918;2023-12-29T22:11:54;100287.97;;;10.70;67.40
11643;BME280;5877;50.930;6.918;2023-12-29T22:16:46;100388.94;;;11.53;63.94
11643;BME280;5877;50.930;6.918;2023-12-29T22:21:42;100248.22;;;10.67;62.08
11643;BME280;5877;50.930;6.918;2023-12-29T22:26:36;100383.72;;;11.64;60.67
11643;BME280;5877;50.930;6.918;2023-12-29T22:31:34;100366.53;;;11.20;61.87
11643;BME280;5877;50.930;6.918;2023-12-29T22:36:29;100331.81;;;11.00;61.66
11643;BME280;5877;50.930;6.918;2023-12-29T22:41:22;100274.03;;;10.52;62.80
11643;BME280;5877;50.930;6.918;2023-12-29T22:46:19;100423.66;;;11.73;61.81
11643;BME280;5877;50.930;6.918;2023-12-29T22:51:16;100430.31;;;11.27;63.26
11643;BME280;5877;50.930;6.918;2023-12-29T22:56:09;100457.16;;;11.11;64.17
11643;BME280;5877;50.930;6.918;2023-12-29T23:01:02;100461.81;;;10.91;64.88
11643;BME280;5877;50.930;6.918;2023-12-29T23:05:54;100468.53;;;11.05;65.39
11643;BME280;5877;50.930;6.918;2023-12-29T23:11:00;100440.66;;;11.04;65.96
11643;BME280;5877;50.930;6.918;2023-12-29T23:16:08;100470.34;;;10.86;67.90
11643;BME280;5877;50.930;6.918;2023-12-29T23:21:15;100435.78;;;10.46;69.11
11643;BME280;5877;50.930;6.918;2023-12-29T23:26:22;100454.19;;;10.64;69.46
11643;BME280;5877;50.930;6.918;2023-12-29T23:31:30;100450.22;;;10.37;70.14
11643;BME280;5877;50.930;6.918;2023-12-29T23:36:36;100448.72;;;10.41;70.94
11643;BME280;5877;50.930;6.918;2023-12-29T23:41:42;100464.22;;;10.49;71.54
11643;BME280;5877;50.930;6.918;2023-12-29T23:46:50;100476.53;;;10.49;71.52
11643;BME280;5877;50.930;6.918;2023-12-29T23:51:56;100434.94;;;10.27;71.55
11643;BME280;5877;50.930;6.918;2023-12-29T23:57:04;100429.47;;;10.29;71.29
